NPT796 EGGP-LFRB
Flight info
| Callsign | NPT796 |
|---|---|
| Flight time | N/A |
| Altitude | 13000 |
| Route | REXAM DCT GODPA DCT MONTY N864 WIGGU DCT LUFMA DCT SIDHO N862 SKESO DCT TUNIT/N0241F140 DCT ANLEV |
| Aircraft | YS11/M-SDFHY/C |
Departure
| Time | N/A |
|---|---|
| Airport | Liverpool John Lennon Airport (EGGP) |
Arrival
| Time | 2026-04-22 00:32 |
|---|---|
| Airport | Brest Bretagne airport (LFRB) |
| Time | Latitude | Longitude | Altitude | Speed | Heading |
|---|---|---|---|---|---|
| 2026-04-21 23:39 | 50.73578 | -3.23873 | 13238 ft | 215 kts | 187° |
| 2026-04-21 23:39 | 50.72109 | -3.24326 | 13257 ft | 215 kts | 190° |
| 2026-04-21 23:39 | 50.70646 | -3.24836 | 13249 ft | 216 kts | 191° |
| 2026-04-21 23:39 | 50.69174 | -3.25288 | 13244 ft | 215 kts | 187° |
| 2026-04-21 23:40 | 50.67685 | -3.25515 | 13258 ft | 215 kts | 183° |
| 2026-04-21 23:40 | 50.66198 | -3.25740 | 13242 ft | 214 kts | 186° |
| 2026-04-21 23:40 | 50.64722 | -3.26082 | 13234 ft | 215 kts | 187° |
| 2026-04-21 23:40 | 50.63239 | -3.26407 | 13235 ft | 214 kts | 187° |
| 2026-04-21 23:41 | 50.61782 | -3.26663 | 13221 ft | 213 kts | 186° |
| 2026-04-21 23:41 | 50.60309 | -3.26942 | 13219 ft | 214 kts | 187° |
| 2026-04-21 23:41 | 50.58844 | -3.27249 | 13221 ft | 212 kts | 188° |
| 2026-04-21 23:41 | 50.57386 | -3.27550 | 13219 ft | 210 kts | 187° |
| 2026-04-21 23:42 | 50.55935 | -3.27829 | 13218 ft | 210 kts | 187° |
| 2026-04-21 23:42 | 50.54485 | -3.28107 | 13212 ft | 210 kts | 187° |
| 2026-04-21 23:42 | 50.53036 | -3.28399 | 13213 ft | 210 kts | 188° |
| 2026-04-21 23:42 | 50.51590 | -3.28693 | 13214 ft | 209 kts | 187° |
| 2026-04-21 23:43 | 50.50144 | -3.28975 | 13212 ft | 209 kts | 187° |
| 2026-04-21 23:43 | 50.48699 | -3.29256 | 13213 ft | 209 kts | 188° |
| 2026-04-21 23:43 | 50.47250 | -3.29546 | 13212 ft | 210 kts | 188° |
| 2026-04-21 23:43 | 50.45806 | -3.29836 | 13208 ft | 209 kts | 188° |
| 2026-04-21 23:44 | 50.44359 | -3.30115 | 13210 ft | 210 kts | 187° |
| 2026-04-21 23:44 | 50.42911 | -3.30397 | 13206 ft | 210 kts | 188° |
| 2026-04-21 23:44 | 50.41462 | -3.30685 | 13210 ft | 210 kts | 188° |
| 2026-04-21 23:44 | 50.40014 | -3.30973 | 13210 ft | 210 kts | 187° |
| 2026-04-21 23:45 | 50.38565 | -3.31261 | 13206 ft | 210 kts | 188° |
| 2026-04-21 23:45 | 50.35710 | -3.30577 | 13184 ft | 211 kts | 162° |
| 2026-04-21 23:45 | 50.34280 | -3.29826 | 13183 ft | 223 kts | 161° |
| 2026-04-21 23:46 | 50.32748 | -3.29035 | 13145 ft | 241 kts | 165° |
| 2026-04-21 23:46 | 50.31067 | -3.28472 | 13166 ft | 254 kts | 170° |
| 2026-04-21 23:46 | 50.29325 | -3.27943 | 13190 ft | 262 kts | 167° |
| 2026-04-21 23:46 | 50.27550 | -3.27219 | 13199 ft | 265 kts | 165° |
| 2026-04-21 23:47 | 50.25747 | -3.26547 | 13203 ft | 267 kts | 168° |
| 2026-04-21 23:47 | 50.23924 | -3.25960 | 13197 ft | 268 kts | 167° |
| 2026-04-21 23:47 | 50.22354 | -3.25299 | 13203 ft | 268 kts | 163° |
| 2026-04-21 23:47 | 50.20603 | -3.24641 | 13195 ft | 268 kts | 169° |
| 2026-04-21 23:48 | 50.18766 | -3.24116 | 13190 ft | 268 kts | 169° |
| 2026-04-21 23:48 | 50.16951 | -3.23418 | 13193 ft | 269 kts | 165° |
| 2026-04-21 23:48 | 50.15141 | -3.22700 | 13192 ft | 268 kts | 167° |
| 2026-04-21 23:48 | 50.13313 | -3.22106 | 13192 ft | 268 kts | 168° |
| 2026-04-21 23:49 | 50.11497 | -3.21464 | 13192 ft | 268 kts | 166° |
| 2026-04-21 23:49 | 50.09687 | -3.20762 | 13187 ft | 268 kts | 166° |
| 2026-04-21 23:49 | 50.07873 | -3.20123 | 13185 ft | 267 kts | 168° |
| 2026-04-21 23:49 | 50.06060 | -3.19503 | 13185 ft | 267 kts | 167° |
| 2026-04-21 23:50 | 50.04244 | -3.18823 | 13184 ft | 269 kts | 167° |
| 2026-04-21 23:50 | 50.02418 | -3.18161 | 13191 ft | 270 kts | 168° |
| 2026-04-21 23:50 | 50.00587 | -3.17530 | 13180 ft | 270 kts | 168° |
| 2026-04-21 23:50 | 49.98777 | -3.16750 | 13171 ft | 271 kts | 156° |
| 2026-04-21 23:51 | 49.97117 | -3.15351 | 13185 ft | 272 kts | 149° |
| 2026-04-21 23:51 | 49.95506 | -3.13798 | 13189 ft | 273 kts | 148° |
| 2026-04-21 23:51 | 49.93870 | -3.12317 | 13177 ft | 272 kts | 154° |
| 2026-04-21 23:51 | 49.92156 | -3.11084 | 13171 ft | 271 kts | 156° |
| 2026-04-21 23:52 | 49.90468 | -3.09776 | 13174 ft | 272 kts | 152° |
| 2026-04-21 23:52 | 49.88810 | -3.08363 | 13175 ft | 271 kts | 153° |
| 2026-04-21 23:52 | 49.87139 | -3.07080 | 13174 ft | 271 kts | 155° |
| 2026-04-21 23:52 | 49.85449 | -3.05789 | 13175 ft | 271 kts | 153° |
| 2026-04-21 23:53 | 49.83788 | -3.04414 | 13177 ft | 271 kts | 153° |
| 2026-04-21 23:53 | 49.82116 | -3.03071 | 13166 ft | 271 kts | 155° |
| 2026-04-21 23:53 | 49.80306 | -3.02391 | 13168 ft | 269 kts | 178° |
| 2026-04-21 23:53 | 49.78440 | -3.02388 | 13173 ft | 268 kts | 183° |
| 2026-04-21 23:54 | 49.76577 | -3.02496 | 13169 ft | 268 kts | 184° |
| 2026-04-21 23:54 | 49.74711 | -3.02628 | 13164 ft | 268 kts | 184° |
| 2026-04-21 23:54 | 49.72845 | -3.02737 | 13163 ft | 268 kts | 180° |
| 2026-04-21 23:54 | 49.70982 | -3.02561 | 13164 ft | 269 kts | 175° |
| 2026-04-21 23:55 | 49.69121 | -3.02312 | 13167 ft | 268 kts | 177° |
| 2026-04-21 23:55 | 49.67260 | -3.02237 | 13170 ft | 268 kts | 180° |
| 2026-04-21 23:55 | 49.65396 | -3.02126 | 13162 ft | 267 kts | 176° |
| 2026-04-21 23:55 | 49.63543 | -3.01920 | 13160 ft | 267 kts | 177° |
| 2026-04-21 23:56 | 49.61685 | -3.01783 | 13168 ft | 267 kts | 179° |
| 2026-04-21 23:56 | 49.59826 | -3.01682 | 13157 ft | 267 kts | 178° |
| 2026-04-21 23:56 | 49.57969 | -3.01520 | 13158 ft | 267 kts | 177° |
| 2026-04-21 23:56 | 49.56110 | -3.01354 | 13153 ft | 267 kts | 178° |
| 2026-04-21 23:57 | 49.54275 | -3.01236 | 13160 ft | 267 kts | 178° |
| 2026-04-21 23:57 | 49.52394 | -3.01100 | 13154 ft | 267 kts | 177° |
| 2026-04-21 23:57 | 49.50535 | -3.00940 | 13157 ft | 267 kts | 177° |
| 2026-04-21 23:57 | 49.48700 | -3.00799 | 13154 ft | 267 kts | 178° |
| 2026-04-21 23:58 | 49.46844 | -3.00669 | 13143 ft | 267 kts | 178° |
| 2026-04-21 23:58 | 49.44992 | -3.00525 | 13146 ft | 267 kts | 178° |
| 2026-04-21 23:58 | 49.43136 | -3.00376 | 13144 ft | 267 kts | 178° |
| 2026-04-21 23:58 | 49.41282 | -3.00237 | 13144 ft | 267 kts | 178° |
| 2026-04-21 23:59 | 49.39424 | -3.00102 | 13137 ft | 267 kts | 178° |
| 2026-04-21 23:59 | 49.37568 | -2.99956 | 13136 ft | 267 kts | 178° |
| 2026-04-21 23:59 | 49.35715 | -3.00068 | 13136 ft | 267 kts | 186° |
| 2026-04-21 23:59 | 49.33869 | -3.00361 | 13139 ft | 267 kts | 186° |
| 2026-04-22 00:00 | 49.32018 | -3.00484 | 13136 ft | 267 kts | 181° |
| 2026-04-22 00:00 | 49.30162 | -3.00533 | 13139 ft | 267 kts | 183° |
| 2026-04-22 00:00 | 49.28311 | -3.00723 | 13135 ft | 267 kts | 185° |
| 2026-04-22 00:00 | 49.26459 | -3.00894 | 13135 ft | 267 kts | 183° |
| 2026-04-22 00:01 | 49.24609 | -3.00976 | 13132 ft | 266 kts | 183° |
| 2026-04-22 00:01 | 49.22765 | -3.01109 | 13131 ft | 265 kts | 184° |
| 2026-04-22 00:01 | 49.20918 | -3.01284 | 13123 ft | 266 kts | 184° |
| 2026-04-22 00:01 | 49.19073 | -3.01406 | 13122 ft | 265 kts | 183° |
| 2026-04-22 00:02 | 49.17225 | -3.01518 | 13122 ft | 266 kts | 183° |
| 2026-04-22 00:02 | 49.15379 | -3.01667 | 13123 ft | 266 kts | 184° |
| 2026-04-22 00:02 | 49.13535 | -3.01815 | 13123 ft | 265 kts | 184° |
| 2026-04-22 00:02 | 49.11691 | -3.01939 | 13123 ft | 266 kts | 183° |
| 2026-04-22 00:03 | 49.09845 | -3.02064 | 13118 ft | 265 kts | 184° |
| 2026-04-22 00:03 | 49.08002 | -3.02208 | 13117 ft | 265 kts | 184° |
| 2026-04-22 00:03 | 49.06157 | -3.02350 | 13117 ft | 265 kts | 183° |
| 2026-04-22 00:03 | 49.04313 | -3.02474 | 13115 ft | 265 kts | 183° |
| 2026-04-22 00:04 | 49.02468 | -3.02602 | 13106 ft | 265 kts | 184° |
| 2026-04-22 00:04 | 49.01247 | -3.02699 | 13107 ft | 266 kts | 184° |
| 2026-04-22 00:04 | 48.99401 | -3.02837 | 13107 ft | 266 kts | 184° |
| 2026-04-22 00:04 | 48.97554 | -3.02963 | 13119 ft | 265 kts | 184° |
| 2026-04-22 00:05 | 48.95710 | -3.03099 | 13111 ft | 265 kts | 185° |
| 2026-04-22 00:05 | 48.93265 | -3.03280 | 13108 ft | 266 kts | 184° |
| 2026-04-22 00:05 | 48.92020 | -3.03369 | 13107 ft | 266 kts | 184° |
| 2026-04-22 00:05 | 48.89573 | -3.03544 | 13104 ft | 266 kts | 184° |
| 2026-04-22 00:06 | 48.88327 | -3.03633 | 13105 ft | 266 kts | 184° |
| 2026-04-22 00:06 | 48.86480 | -3.03769 | 13094 ft | 266 kts | 184° |
| 2026-04-22 00:06 | 48.84632 | -3.03904 | 13099 ft | 266 kts | 184° |
| 2026-04-22 00:06 | 48.82787 | -3.04031 | 13094 ft | 266 kts | 184° |
| 2026-04-22 00:07 | 48.80940 | -3.04168 | 13094 ft | 266 kts | 185° |
| 2026-04-22 00:07 | 48.79094 | -3.04303 | 13093 ft | 265 kts | 185° |
| 2026-04-22 00:07 | 48.77252 | -3.04433 | 13090 ft | 265 kts | 184° |
| 2026-04-22 00:07 | 48.75407 | -3.04580 | 13088 ft | 264 kts | 185° |
| 2026-04-22 00:08 | 48.73577 | -3.04829 | 13015 ft | 264 kts | 188° |
| 2026-04-22 00:08 | 48.71760 | -3.05236 | 12820 ft | 265 kts | 194° |
| 2026-04-22 00:08 | 48.70107 | -3.06412 | 12369 ft | 271 kts | 218° |
| 2026-04-22 00:08 | 48.68965 | -3.08616 | 12131 ft | 266 kts | 245° |
| 2026-04-22 00:09 | 48.68365 | -3.11239 | 11985 ft | 261 kts | 252° |
| 2026-04-22 00:09 | 48.67858 | -3.13868 | 11797 ft | 260 kts | 254° |
| 2026-04-22 00:09 | 48.67456 | -3.16546 | 11492 ft | 263 kts | 260° |
| 2026-04-22 00:09 | 48.67260 | -3.19284 | 11312 ft | 260 kts | 264° |
| 2026-04-22 00:10 | 48.67089 | -3.22018 | 10926 ft | 265 kts | 263° |
| 2026-04-22 00:10 | 48.66841 | -3.24797 | 10533 ft | 266 kts | 258° |
| 2026-04-22 00:10 | 48.66325 | -3.27477 | 10214 ft | 265 kts | 250° |
| 2026-04-22 00:10 | 48.65672 | -3.30070 | 9916 ft | 263 kts | 248° |
| 2026-04-22 00:11 | 48.65015 | -3.32662 | 9547 ft | 265 kts | 248° |
| 2026-04-22 00:11 | 48.64397 | -3.35269 | 9307 ft | 264 kts | 250° |
| 2026-04-22 00:11 | 48.63839 | -3.37943 | 8888 ft | 269 kts | 254° |
| 2026-04-22 00:11 | 48.63489 | -3.40722 | 8526 ft | 269 kts | 261° |
| 2026-04-22 00:12 | 48.63250 | -3.43554 | 8002 ft | 275 kts | 262° |
| 2026-04-22 00:12 | 48.63043 | -3.46445 | 7513 ft | 276 kts | 262° |
| 2026-04-22 00:12 | 48.62757 | -3.49342 | 6903 ft | 283 kts | 257° |
| 2026-04-22 00:12 | 48.62339 | -3.52276 | 6303 ft | 286 kts | 252° |
| 2026-04-22 00:13 | 48.61829 | -3.55122 | 6106 ft | 272 kts | 252° |
| 2026-04-22 00:13 | 48.61408 | -3.57863 | 6003 ft | 263 kts | 256° |
| 2026-04-22 00:13 | 48.61058 | -3.60565 | 6054 ft | 261 kts | 257° |
| 2026-04-22 00:13 | 48.60737 | -3.63272 | 6065 ft | 263 kts | 257° |
| 2026-04-22 00:14 | 48.60367 | -3.65976 | 6080 ft | 263 kts | 256° |
| 2026-04-22 00:14 | 48.60102 | -3.68728 | 6068 ft | 266 kts | 261° |
| 2026-04-22 00:14 | 48.59927 | -3.71520 | 6070 ft | 268 kts | 262° |
| 2026-04-22 00:14 | 48.59716 | -3.74323 | 6067 ft | 268 kts | 260° |
| 2026-04-22 00:15 | 48.59443 | -3.77103 | 6061 ft | 268 kts | 259° |
| 2026-04-22 00:15 | 48.59207 | -3.79897 | 6079 ft | 268 kts | 262° |
| 2026-04-22 00:15 | 48.58998 | -3.82687 | 6058 ft | 267 kts | 261° |
| 2026-04-22 00:15 | 48.58750 | -3.85465 | 6076 ft | 267 kts | 260° |
| 2026-04-22 00:16 | 48.58493 | -3.88239 | 6077 ft | 267 kts | 261° |
| 2026-04-22 00:16 | 48.58270 | -3.91021 | 6083 ft | 267 kts | 262° |
| 2026-04-22 00:16 | 48.58037 | -3.93806 | 6079 ft | 267 kts | 261° |
| 2026-04-22 00:16 | 48.57784 | -3.96578 | 6081 ft | 267 kts | 261° |
| 2026-04-22 00:17 | 48.57540 | -3.99354 | 6047 ft | 267 kts | 261° |
| 2026-04-22 00:17 | 48.57307 | -4.02129 | 6051 ft | 266 kts | 261° |
| 2026-04-22 00:17 | 48.57063 | -4.04898 | 6052 ft | 265 kts | 261° |
| 2026-04-22 00:17 | 48.56815 | -4.07658 | 6053 ft | 266 kts | 261° |
| 2026-04-22 00:18 | 48.56570 | -4.10437 | 6042 ft | 267 kts | 261° |
| 2026-04-22 00:18 | 48.56329 | -4.13214 | 6035 ft | 267 kts | 261° |
| 2026-04-22 00:18 | 48.56081 | -4.15998 | 6034 ft | 268 kts | 261° |
| 2026-04-22 00:18 | 48.55831 | -4.18777 | 6031 ft | 267 kts | 261° |
| 2026-04-22 00:19 | 48.55588 | -4.21520 | 6035 ft | 267 kts | 261° |
| 2026-04-22 00:19 | 48.55339 | -4.24299 | 6032 ft | 267 kts | 261° |
| 2026-04-22 00:19 | 48.55087 | -4.27071 | 6026 ft | 266 kts | 261° |
| 2026-04-22 00:19 | 48.54859 | -4.29609 | 6024 ft | 267 kts | 261° |
| 2026-04-22 00:20 | 48.54776 | -4.30536 | 6025 ft | 266 kts | 261° |
| 2026-04-22 00:21 | 48.54535 | -4.33221 | 6027 ft | 266 kts | 261° |
| 2026-04-22 00:21 | 48.54285 | -4.35988 | 6018 ft | 267 kts | 260° |
| 2026-04-22 00:21 | 48.54029 | -4.38770 | 5995 ft | 269 kts | 260° |
| 2026-04-22 00:21 | 48.53785 | -4.41617 | 5498 ft | 280 kts | 262° |
| 2026-04-22 00:22 | 48.53576 | -4.44550 | 5177 ft | 278 kts | 262° |
| 2026-04-22 00:22 | 48.53366 | -4.47388 | 5001 ft | 267 kts | 261° |
| 2026-04-22 00:22 | 48.53154 | -4.50097 | 4968 ft | 254 kts | 259° |
| 2026-04-22 00:22 | 48.52899 | -4.52687 | 4974 ft | 246 kts | 258° |
| 2026-04-22 00:23 | 48.52668 | -4.55247 | 4905 ft | 245 kts | 259° |
| 2026-04-22 00:23 | 48.52241 | -4.57742 | 4571 ft | 248 kts | 245° |
| 2026-04-22 00:23 | 48.51531 | -4.60140 | 4297 ft | 251 kts | 240° |
| 2026-04-22 00:23 | 48.50787 | -4.62516 | 4119 ft | 250 kts | 240° |
| 2026-04-22 00:24 | 48.50061 | -4.64866 | 4051 ft | 245 kts | 241° |
| 2026-04-22 00:24 | 48.49424 | -4.67169 | 4009 ft | 231 kts | 244° |
| 2026-04-22 00:24 | 48.48861 | -4.69373 | 4023 ft | 220 kts | 243° |
| 2026-04-22 00:24 | 48.48243 | -4.71417 | 3956 ft | 214 kts | 232° |
| 2026-04-22 00:25 | 48.47294 | -4.73049 | 3900 ft | 201 kts | 210° |
| 2026-04-22 00:25 | 48.46076 | -4.74007 | 3659 ft | 194 kts | 184° |
| 2026-04-22 00:25 | 48.44802 | -4.73927 | 3438 ft | 180 kts | 154° |
| 2026-04-22 00:25 | 48.43661 | -4.73187 | 3232 ft | 179 kts | 150° |
| 2026-04-22 00:26 | 48.42517 | -4.72482 | 3158 ft | 173 kts | 152° |
| 2026-04-22 00:26 | 48.41473 | -4.71677 | 2956 ft | 168 kts | 135° |
| 2026-04-22 00:26 | 48.40745 | -4.70359 | 2799 ft | 161 kts | 120° |
| 2026-04-22 00:26 | 48.40247 | -4.68863 | 2571 ft | 161 kts | 109° |
| 2026-04-22 00:27 | 48.39992 | -4.67298 | 2527 ft | 143 kts | 101° |
| 2026-04-22 00:27 | 48.39883 | -4.65949 | 2563 ft | 118 kts | 98° |
| 2026-04-22 00:27 | 48.39809 | -4.64784 | 2536 ft | 110 kts | 98° |
| 2026-04-22 00:27 | 48.39932 | -4.63626 | 2513 ft | 114 kts | 81° |
| 2026-04-22 00:28 | 48.40185 | -4.62469 | 2397 ft | 117 kts | 83° |
| 2026-04-22 00:28 | 48.40386 | -4.61276 | 2307 ft | 119 kts | 81° |
| 2026-04-22 00:28 | 48.40683 | -4.60091 | 2188 ft | 120 kts | 81° |
| 2026-04-22 00:28 | 48.40913 | -4.58909 | 2047 ft | 116 kts | 84° |
| 2026-04-22 00:29 | 48.41149 | -4.57784 | 1990 ft | 110 kts | 80° |
| 2026-04-22 00:29 | 48.41412 | -4.56726 | 1901 ft | 107 kts | 79° |
| 2026-04-22 00:29 | 48.41645 | -4.55681 | 1767 ft | 104 kts | 80° |
| 2026-04-22 00:29 | 48.41857 | -4.54694 | 1629 ft | 95 kts | 80° |
| 2026-04-22 00:30 | 48.42074 | -4.53713 | 1530 ft | 107 kts | 78° |
| 2026-04-22 00:30 | 48.42335 | -4.52618 | 1470 ft | 112 kts | 78° |
| 2026-04-22 00:30 | 48.42580 | -4.51520 | 1415 ft | 111 kts | 79° |
| 2026-04-22 00:30 | 48.42836 | -4.50413 | 1223 ft | 112 kts | 76° |
| 2026-04-22 00:31 | 48.43071 | -4.49360 | 1119 ft | 103 kts | 75° |
| 2026-04-22 00:31 | 48.43309 | -4.48324 | 1034 ft | 107 kts | 73° |
| 2026-04-22 00:31 | 48.43568 | -4.47214 | 887 ft | 118 kts | 73° |
| 2026-04-22 00:31 | 48.43834 | -4.46036 | 673 ft | 118 kts | 71° |
| 2026-04-22 00:32 | 48.44096 | -4.44877 | 490 ft | 113 kts | 68° |
| 2026-04-22 00:32 | 48.44337 | -4.43827 | 359 ft | 102 kts | 70° |
| 2026-04-22 00:32 | 48.44521 | -4.43027 | 301 ft | 58 kts | 71° |
| 2026-04-22 00:32 | 48.44617 | -4.42599 | 310 ft | 32 kts | 71° |
| 2026-04-22 00:33 | 48.44672 | -4.42353 | 319 ft | 25 kts | 71° |
| 2026-04-22 00:33 | 48.44692 | -4.42199 | 327 ft | 5 kts | 108° |
| 2026-04-22 00:33 | 48.44653 | -4.42145 | 330 ft | 9 kts | 159° |
| 2026-04-22 00:33 | 48.44605 | -4.42121 | 330 ft | 6 kts | 162° |
| 2026-04-22 00:34 | 48.44568 | -4.42102 | 330 ft | 0 kts | 158° |
| 2026-04-22 00:36 | 48.44567 | -4.42102 | 330 ft | 1 kts | 158° |
| 2026-04-22 00:36 | 48.44540 | -4.42093 | 332 ft | 6 kts | 179° |
| 2026-04-22 00:36 | 48.44494 | -4.42128 | 331 ft | 10 kts | 222° |
| 2026-04-22 00:37 | 48.44434 | -4.42207 | 331 ft | 11 kts | 219° |
| 2026-04-22 00:37 | 48.44402 | -4.42249 | 330 ft | 0 kts | 218° |
| 2026-04-22 00:38 | 48.44397 | -4.42259 | 330 ft | 4 kts | 252° |
| 2026-04-22 00:38 | 48.44384 | -4.42263 | 331 ft | 2 kts | 94° |
| 2026-04-22 00:38 | 48.44395 | -4.42246 | 331 ft | 1 kts | 39° |
| 2026-04-22 00:39 | 48.44400 | -4.42216 | 328 ft | 8 kts | 114° |
| 2026-04-22 00:39 | 48.44377 | -4.42193 | 332 ft | 4 kts | 156° |
| 2026-04-22 00:39 | 48.44362 | -4.42183 | 331 ft | 0 kts | 156° |